• Join FlightAware (Why Join?)
  • Login
  • US Flag 
09:57PM EDT


 

Airport Tracker/Info


-or-


 

Live Flight TrackerFlight Track Log ✈ LMO8609 ✈ 25-Jan-2014 ✈ KAPF - KFXE

Flight Track Log - Related Links

Times and Time Zones

All times are in EST time to prevent confusion due to time zone crossing. See the LMO8609 flight status page for this flight to view local times or setup timezone preferences in your user account.

Time Position Orientation Groundspeed Altitude Reporting Facility
EST Latitude Longitude Course Direction KTS MPH feet Rate Location/Type
05:17PM 26.0378 -81.7631 97° East 219 252 4,200  Level Miami Center
05:18PM 26.0297 -81.6886 97° East 211 243 6,800 2,700 Climbing Miami Center
05:19PM 26.0433 -81.5944 81° East 257 296 9,600 2,100 Climbing Miami Center
05:20PM 26.0528 -81.4978 84° East 300 345 11,000 660 Climbing Miami Center
05:21PM 26.0644 -81.3872 83° East 350 403 11,000  Level Miami Center
05:22PM 26.0767 -81.2675 83° East 381 438 11,000 -300 Level Miami Center
05:23PM 26.0903 -81.1547 82° East 381 438 10,400 -960 Descending Miami Center
05:24PM 26.0942 -81.0947 86° East 313 360 9,500 -1,500 Descending Miami Center
05:24PM 26.0994 -81.0578 81° East 335 386 8,900 -1,860 Descending Miami Center
05:25PM 26.1006 -81.0208 88° East 296 341 8,000 -1,620 Descending Miami Center
05:25PM 26.1061 -80.9750 82° East 321 369 7,300 -1,320 Descending Miami Center
05:26PM 26.1031 -80.9308 94° East 278 320 6,700 -900 Descending Miami Center
05:26PM 26.1019 -80.8914 92° East 290 334 6,400 -480 Descending Miami Center
05:27PM 26.0958 -80.8125 95° East 265 305 6,000 -660 Descending Miami Center
05:28PM 26.1053 -80.7689 76° East 265 305 5,500 -840 Descending Miami Center
05:28PM 26.1186 -80.7369 65° Northeast 248 285 5,200 -780 Descending Miami Center
05:29PM 26.1306 -80.6889 75° East 271 312 4,700 -840 Descending Miami Center
05:29PM 26.1397 -80.6544 73° East 261 300 4,400 -720 Descending Miami Center
05:30PM 26.1514 -80.6061 75° East 279 321 4,000 -840 Descending Miami Center
05:30PM 26.1606 -80.5742 72° East 266 306 3,600 -1,020 Descending Miami Center
05:31PM 26.1722 -80.5283 74° East 266 306 3,000 -600 Descending Miami Center
05:31PM 26.1833 -80.4961 69° East 266 306 3,000  Level Miami Center
05:32PM 26.1928 -80.4500 77° East 263 303 3,000  Level Miami Center
05:32PM 26.2019 -80.4181 72° East 260 299 3,000 -120 Level Miami Center
05:33PM 26.2125 -80.3350 82° East 260 299 2,900 -540 Descending Miami Center
05:34PM 26.2158 -80.2817 86° East 259 298 2,200 -1,080 Descending Miami Center
05:35PM 26.2256 -80.2194 80° East 213 245 1,300 -540 Descending Miami Center
05:36PM 26.2292 -80.1525 87° East 190 219 1,200 -420 Descending Miami Center
05:37PM 26.1981 -80.1469 171° South 122 140 400 -780 Descending Miami Center
05:39PM 26.1833 -80.1667 270° West  Level FlightAware Approximate